sensor_id;sensor_type;location;lat;lon;timestamp;temperature;humidity
45409;DHT22;31162;51.076;3.784;2022-12-29T00:02:13;11.60;99.90
45409;DHT22;31162;51.076;3.784;2022-12-29T00:04:39;11.70;99.90
45409;DHT22;31162;51.076;3.784;2022-12-29T00:07:05;11.80;99.90
45409;DHT22;31162;51.076;3.784;2022-12-29T00:09:32;11.90;99.90
45409;DHT22;31162;51.076;3.784;2022-12-29T00:11:58;11.90;99.90
45409;DHT22;31162;51.076;3.784;2022-12-29T00:14:24;12.00;99.90
45409;DHT22;31162;51.076;3.784;2022-12-29T00:17:08;12.00;99.90
45409;DHT22;31162;51.076;3.784;2022-12-29T00:19:34;12.10;99.90
45409;DHT22;31162;51.076;3.784;2022-12-29T00:22:18;12.20;99.90
45409;DHT22;31162;51.076;3.784;2022-12-29T00:25:04;12.20;99.90
45409;DHT22;31162;51.076;3.784;2022-12-29T00:27:31;12.20;99.90
45409;DHT22;31162;51.076;3.784;2022-12-29T00:30:21;12.30;99.90
45409;DHT22;31162;51.076;3.784;2022-12-29T00:33:16;12.30;99.90
45409;DHT22;31162;51.076;3.784;2022-12-29T00:36:07;12.30;99.90
45409;DHT22;31162;51.076;3.784;2022-12-29T00:38:35;12.30;99.90
45409;DHT22;31162;51.076;3.784;2022-12-29T00:41:21;12.20;99.90
45409;DHT22;31162;51.076;3.784;2022-12-29T00:44:06;12.20;99.90
45409;DHT22;31162;51.076;3.784;2022-12-29T00:46:33;12.10;99.90
45409;DHT22;31162;51.076;3.784;2022-12-29T00:49:00;12.10;99.90
45409;DHT22;31162;51.076;3.784;2022-12-29T00:51:44;12.20;99.90
45409;DHT22;31162;51.076;3.784;2022-12-29T00:54:10;12.20;99.90
45409;DHT22;31162;51.076;3.784;2022-12-29T00:56:36;12.20;99.90
45409;DHT22;31162;51.076;3.784;2022-12-29T00:59:06;12.20;99.90
45409;DHT22;31162;51.076;3.784;2022-12-29T01:01:33;12.20;99.90
45409;DHT22;31162;51.076;3.784;2022-12-29T01:03:59;12.20;99.90
45409;DHT22;31162;51.076;3.784;2022-12-29T01:06:25;12.20;99.90
45409;DHT22;31162;51.076;3.784;2022-12-29T01:08:51;12.30;99.90
45409;DHT22;31162;51.076;3.784;2022-12-29T01:11:37;12.40;99.90
45409;DHT22;31162;51.076;3.784;2022-12-29T01:14:02;12.40;99.90
45409;DHT22;31162;51.076;3.784;2022-12-29T01:16:28;12.40;99.90
45409;DHT22;31162;51.076;3.784;2022-12-29T01:18:54;12.40;99.90
45409;DHT22;31162;51.076;3.784;2022-12-29T01:21:20;12.50;99.90
45409;DHT22;31162;51.076;3.784;2022-12-29T01:23:46;12.50;99.90
45409;DHT22;31162;51.076;3.784;2022-12-29T01:26:16;12.50;99.90
45409;DHT22;31162;51.076;3.784;2022-12-29T01:28:42;12.50;99.90
45409;DHT22;31162;51.076;3.784;2022-12-29T01:31:13;12.50;99.90
45409;DHT22;31162;51.076;3.784;2022-12-29T01:33:39;12.50;99.90
45409;DHT22;31162;51.076;3.784;2022-12-29T01:36:07;12.50;99.90
45409;DHT22;31162;51.076;3.784;2022-12-29T01:38:34;12.50;99.90
45409;DHT22;31162;51.076;3.784;2022-12-29T01:41:00;12.50;99.90
45409;DHT22;31162;51.076;3.784;2022-12-29T01:43:44;12.40;99.90
45409;DHT22;31162;51.076;3.784;2022-12-29T01:46:39;12.40;99.90
45409;DHT22;31162;51.076;3.784;2022-12-29T01:49:12;12.40;99.90
45409;DHT22;31162;51.076;3.784;2022-12-29T01:51:48;12.30;99.90
45409;DHT22;31162;51.076;3.784;2022-12-29T01:54:46;12.30;99.90
45409;DHT22;31162;51.076;3.784;2022-12-29T01:57:16;12.30;99.90
45409;DHT22;31162;51.076;3.784;2022-12-29T01:59:54;12.30;99.90
45409;DHT22;31162;51.076;3.784;2022-12-29T02:02:22;12.30;99.90
45409;DHT22;31162;51.076;3.784;2022-12-29T02:04:48;12.30;99.90
45409;DHT22;31162;51.076;3.784;2022-12-29T02:07:19;12.40;99.90
45409;DHT22;31162;51.076;3.784;2022-12-29T02:09:49;12.40;99.90
45409;DHT22;31162;51.076;3.784;2022-12-29T02:12:17;12.30;99.90
45409;DHT22;31162;51.076;3.784;2022-12-29T02:14:43;12.30;99.90
45409;DHT22;31162;51.076;3.784;2022-12-29T02:20:52;12.20;99.90
45409;DHT22;31162;51.076;3.784;2022-12-29T02:32:13;12.10;99.90
45409;DHT22;31162;51.076;3.784;2022-12-29T02:34:57;12.10;99.90
45409;DHT22;31162;51.076;3.784;2022-12-29T02:40:20;12.10;99.90
45409;DHT22;31162;51.076;3.784;2022-12-29T02:50:50;12.30;99.90
45409;DHT22;31162;51.076;3.784;2022-12-29T02:53:19;12.10;99.90
45409;DHT22;31162;51.076;3.784;2022-12-29T02:56:06;12.10;99.90
45409;DHT22;31162;51.076;3.784;2022-12-29T02:58:32;12.10;99.90
45409;DHT22;31162;51.076;3.784;2022-12-29T03:06:43;12.00;99.90
45409;DHT22;31162;51.076;3.784;2022-12-29T03:12:46;11.90;99.90
45409;DHT22;31162;51.076;3.784;2022-12-29T03:15:01;11.90;99.90
45409;DHT22;31162;51.076;3.784;2022-12-29T03:17:54;11.90;99.90
45409;DHT22;31162;51.076;3.784;2022-12-29T03:20:26;11.90;99.90
45409;DHT22;31162;51.076;3.784;2022-12-29T03:22:59;11.90;99.90
45409;DHT22;31162;51.076;3.784;2022-12-29T03:25:47;11.80;99.90
45409;DHT22;31162;51.076;3.784;2022-12-29T03:28:21;11.70;99.90
45409;DHT22;31162;51.076;3.784;2022-12-29T03:30:48;11.60;99.90
45409;DHT22;31162;51.076;3.784;2022-12-29T03:33:18;11.50;99.90
45409;DHT22;31162;51.076;3.784;2022-12-29T03:35:45;11.40;99.90
45409;DHT22;31162;51.076;3.784;2022-12-29T03:41:04;11.50;99.90
45409;DHT22;31162;51.076;3.784;2022-12-29T03:43:31;11.50;99.90
45409;DHT22;31162;51.076;3.784;2022-12-29T03:45:57;11.50;99.90
45409;DHT22;31162;51.076;3.784;2022-12-29T03:48:22;11.50;99.90
45409;DHT22;31162;51.076;3.784;2022-12-29T03:50:48;11.60;99.90
45409;DHT22;31162;51.076;3.784;2022-12-29T03:53:14;11.60;99.90
45409;DHT22;31162;51.076;3.784;2022-12-29T03:55:39;11.60;99.90
45409;DHT22;31162;51.076;3.784;2022-12-29T03:58:05;11.50;99.90
45409;DHT22;31162;51.076;3.784;2022-12-29T04:00:31;11.50;99.90
45409;DHT22;31162;51.076;3.784;2022-12-29T04:02:56;11.60;99.90
45409;DHT22;31162;51.076;3.784;2022-12-29T04:05:22;11.60;99.90
45409;DHT22;31162;51.076;3.784;2022-12-29T04:07:48;11.60;99.90
45409;DHT22;31162;51.076;3.784;2022-12-29T04:10:13;11.50;99.90
45409;DHT22;31162;51.076;3.784;2022-12-29T04:12:39;11.50;99.90
45409;DHT22;31162;51.076;3.784;2022-12-29T04:15:07;11.50;99.90
45409;DHT22;31162;51.076;3.784;2022-12-29T04:17:33;11.50;99.90
45409;DHT22;31162;51.076;3.784;2022-12-29T04:19:59;11.50;99.90
45409;DHT22;31162;51.076;3.784;2022-12-29T04:22:43;11.50;99.90
45409;DHT22;31162;51.076;3.784;2022-12-29T04:25:09;11.60;99.90
45409;DHT22;31162;51.076;3.784;2022-12-29T04:27:35;11.70;99.90
45409;DHT22;31162;51.076;3.784;2022-12-29T04:30:00;11.60;99.90
45409;DHT22;31162;51.076;3.784;2022-12-29T04:32:26;11.70;99.90
45409;DHT22;31162;51.076;3.784;2022-12-29T04:34:52;11.50;99.90
45409;DHT22;31162;51.076;3.784;2022-12-29T04:37:17;11.40;99.90
45409;DHT22;31162;51.076;3.784;2022-12-29T04:39:43;11.40;99.90
45409;DHT22;31162;51.076;3.784;2022-12-29T04:42:09;11.30;99.90
45409;DHT22;31162;51.076;3.784;2022-12-29T04:44:34;11.20;99.90
45409;DHT22;31162;51.076;3.784;2022-12-29T04:47:00;11.10;99.90
45409;DHT22;31162;51.076;3.784;2022-12-29T04:49:25;11.20;99.90
45409;DHT22;31162;51.076;3.784;2022-12-29T04:51:51;11.20;99.90
45409;DHT22;31162;51.076;3.784;2022-12-29T04:54:17;11.30;99.90
45409;DHT22;31162;51.076;3.784;2022-12-29T04:56:42;11.30;99.90
45409;DHT22;31162;51.076;3.784;2022-12-29T04:59:08;11.30;99.90
45409;DHT22;31162;51.076;3.784;2022-12-29T05:01:33;11.20;99.90
45409;DHT22;31162;51.076;3.784;2022-12-29T05:03:59;11.20;99.90
45409;DHT22;31162;51.076;3.784;2022-12-29T05:06:25;11.30;99.90
45409;DHT22;31162;51.076;3.784;2022-12-29T05:08:50;11.30;99.90
45409;DHT22;31162;51.076;3.784;2022-12-29T05:11:16;11.30;99.90
45409;DHT22;31162;51.076;3.784;2022-12-29T05:13:45;11.30;99.90
45409;DHT22;31162;51.076;3.784;2022-12-29T05:16:11;11.30;99.90
45409;DHT22;31162;51.076;3.784;2022-12-29T05:18:36;11.30;99.90
45409;DHT22;31162;51.076;3.784;2022-12-29T05:21:02;11.40;99.90
45409;DHT22;31162;51.076;3.784;2022-12-29T05:23:28;11.30;99.90
45409;DHT22;31162;51.076;3.784;2022-12-29T05:25:53;11.30;99.90
45409;DHT22;31162;51.076;3.784;2022-12-29T05:28:19;11.30;99.90
45409;DHT22;31162;51.076;3.784;2022-12-29T05:30:48;11.30;99.90
45409;DHT22;31162;51.076;3.784;2022-12-29T05:33:14;11.30;99.90
45409;DHT22;31162;51.076;3.784;2022-12-29T05:35:39;11.10;99.90
45409;DHT22;31162;51.076;3.784;2022-12-29T05:38:05;11.00;99.90
45409;DHT22;31162;51.076;3.784;2022-12-29T05:40:31;10.90;99.90
45409;DHT22;31162;51.076;3.784;2022-12-29T05:42:56;10.90;99.90
45409;DHT22;31162;51.076;3.784;2022-12-29T05:45:22;11.00;99.90
45409;DHT22;31162;51.076;3.784;2022-12-29T05:47:48;11.10;99.90
45409;DHT22;31162;51.076;3.784;2022-12-29T05:50:13;11.00;99.90
45409;DHT22;31162;51.076;3.784;2022-12-29T05:52:39;11.00;99.90
45409;DHT22;31162;51.076;3.784;2022-12-29T05:55:05;11.10;99.90
45409;DHT22;31162;51.076;3.784;2022-12-29T05:57:31;11.10;99.90
45409;DHT22;31162;51.076;3.784;2022-12-29T05:59:56;11.10;99.90
45409;DHT22;31162;51.076;3.784;2022-12-29T06:02:22;11.10;99.90
45409;DHT22;31162;51.076;3.784;2022-12-29T06:04:47;11.10;99.90
45409;DHT22;31162;51.076;3.784;2022-12-29T06:07:13;11.10;99.90
45409;DHT22;31162;51.076;3.784;2022-12-29T06:09:39;11.10;99.90
45409;DHT22;31162;51.076;3.784;2022-12-29T06:12:05;11.10;99.90
45409;DHT22;31162;51.076;3.784;2022-12-29T06:14:31;11.20;99.90
45409;DHT22;31162;51.076;3.784;2022-12-29T06:16:56;11.20;99.90
45409;DHT22;31162;51.076;3.784;2022-12-29T06:19:22;11.20;99.90
45409;DHT22;31162;51.076;3.784;2022-12-29T06:21:47;11.20;99.90
45409;DHT22;31162;51.076;3.784;2022-12-29T06:24:13;11.20;99.90
45409;DHT22;31162;51.076;3.784;2022-12-29T06:26:39;11.20;99.90
45409;DHT22;31162;51.076;3.784;2022-12-29T06:29:06;11.20;99.90
45409;DHT22;31162;51.076;3.784;2022-12-29T06:31:33;11.30;99.90
45409;DHT22;31162;51.076;3.784;2022-12-29T06:33:59;11.30;99.90
45409;DHT22;31162;51.076;3.784;2022-12-29T06:36:24;11.30;99.90
45409;DHT22;31162;51.076;3.784;2022-12-29T06:38:50;11.30;99.90
45409;DHT22;31162;51.076;3.784;2022-12-29T06:41:18;11.20;99.90
45409;DHT22;31162;51.076;3.784;2022-12-29T06:43:44;11.10;99.90
45409;DHT22;31162;51.076;3.784;2022-12-29T06:46:10;11.00;99.90
45409;DHT22;31162;51.076;3.784;2022-12-29T06:48:35;10.90;99.90
45409;DHT22;31162;51.076;3.784;2022-12-29T06:51:01;10.80;99.90
45409;DHT22;31162;51.076;3.784;2022-12-29T06:53:27;10.70;99.90
45409;DHT22;31162;51.076;3.784;2022-12-29T06:55:52;10.70;99.90
45409;DHT22;31162;51.076;3.784;2022-12-29T06:58:18;10.70;99.90
45409;DHT22;31162;51.076;3.784;2022-12-29T07:00:44;10.60;99.90
45409;DHT22;31162;51.076;3.784;2022-12-29T07:03:09;10.60;99.90
45409;DHT22;31162;51.076;3.784;2022-12-29T07:05:35;10.50;99.90
45409;DHT22;31162;51.076;3.784;2022-12-29T07:08:01;10.60;99.90
45409;DHT22;31162;51.076;3.784;2022-12-29T07:10:27;10.60;99.90
45409;DHT22;31162;51.076;3.784;2022-12-29T07:12:52;10.70;99.90
45409;DHT22;31162;51.076;3.784;2022-12-29T07:15:18;10.80;99.90
45409;DHT22;31162;51.076;3.784;2022-12-29T07:17:44;11.00;99.90
45409;DHT22;31162;51.076;3.784;2022-12-29T07:20:10;11.10;99.90
45409;DHT22;31162;51.076;3.784;2022-12-29T07:22:36;11.10;99.90
45409;DHT22;31162;51.076;3.784;2022-12-29T07:25:02;11.10;99.90
45409;DHT22;31162;51.076;3.784;2022-12-29T07:27:28;11.10;99.90
45409;DHT22;31162;51.076;3.784;2022-12-29T07:29:54;11.10;99.90
45409;DHT22;31162;51.076;3.784;2022-12-29T07:32:20;11.20;99.90
45409;DHT22;31162;51.076;3.784;2022-12-29T07:34:45;11.10;99.90
45409;DHT22;31162;51.076;3.784;2022-12-29T07:37:14;11.20;99.90
45409;DHT22;31162;51.076;3.784;2022-12-29T07:39:40;11.10;99.90
45409;DHT22;31162;51.076;3.784;2022-12-29T07:42:06;11.10;99.90
45409;DHT22;31162;51.076;3.784;2022-12-29T07:44:31;11.10;99.90
45409;DHT22;31162;51.076;3.784;2022-12-29T07:46:57;11.20;99.90
45409;DHT22;31162;51.076;3.784;2022-12-29T07:49:23;11.20;99.90
45409;DHT22;31162;51.076;3.784;2022-12-29T07:51:48;11.20;99.90
45409;DHT22;31162;51.076;3.784;2022-12-29T07:54:14;11.20;99.90
45409;DHT22;31162;51.076;3.784;2022-12-29T07:56:43;11.10;99.90
45409;DHT22;31162;51.076;3.784;2022-12-29T07:59:09;11.20;99.90
45409;DHT22;31162;51.076;3.784;2022-12-29T08:01:35;11.10;99.90
45409;DHT22;31162;51.076;3.784;2022-12-29T08:04:00;11.00;99.90
45409;DHT22;31162;51.076;3.784;2022-12-29T08:06:26;10.80;99.90
45409;DHT22;31162;51.076;3.784;2022-12-29T08:08:51;10.70;99.90
45409;DHT22;31162;51.076;3.784;2022-12-29T08:11:17;10.60;99.90
45409;DHT22;31162;51.076;3.784;2022-12-29T08:13:43;10.60;99.90
45409;DHT22;31162;51.076;3.784;2022-12-29T08:16:08;10.50;99.90
45409;DHT22;31162;51.076;3.784;2022-12-29T08:18:35;10.50;99.90
45409;DHT22;31162;51.076;3.784;2022-12-29T08:21:02;10.40;99.90
45409;DHT22;31162;51.076;3.784;2022-12-29T08:23:28;10.30;99.90
45409;DHT22;31162;51.076;3.784;2022-12-29T08:26:02;10.30;99.90
45409;DHT22;31162;51.076;3.784;2022-12-29T08:28:29;10.30;99.90
45409;DHT22;31162;51.076;3.784;2022-12-29T08:30:59;10.30;99.90
45409;DHT22;31162;51.076;3.784;2022-12-29T08:33:26;10.30;99.90
45409;DHT22;31162;51.076;3.784;2022-12-29T08:35:52;10.30;99.90
45409;DHT22;31162;51.076;3.784;2022-12-29T08:38:17;10.20;99.90
45409;DHT22;31162;51.076;3.784;2022-12-29T08:40:43;10.10;99.90
45409;DHT22;31162;51.076;3.784;2022-12-29T08:43:09;10.00;99.90
45409;DHT22;31162;51.076;3.784;2022-12-29T08:45:35;10.00;99.90
45409;DHT22;31162;51.076;3.784;2022-12-29T08:48:01;10.10;99.90
45409;DHT22;31162;51.076;3.784;2022-12-29T08:50:27;10.00;99.90
45409;DHT22;31162;51.076;3.784;2022-12-29T08:52:52;10.10;99.90
45409;DHT22;31162;51.076;3.784;2022-12-29T08:55:18;10.00;99.90
45409;DHT22;31162;51.076;3.784;2022-12-29T08:57:44;9.90;99.90
45409;DHT22;31162;51.076;3.784;2022-12-29T09:00:10;9.90;99.90
45409;DHT22;31162;51.076;3.784;2022-12-29T09:02:36;9.90;99.90
45409;DHT22;31162;51.076;3.784;2022-12-29T09:05:01;9.80;99.90
45409;DHT22;31162;51.076;3.784;2022-12-29T09:07:27;9.80;99.90
45409;DHT22;31162;51.076;3.784;2022-12-29T09:09:53;9.80;99.90
45409;DHT22;31162;51.076;3.784;2022-12-29T09:12:18;9.80;99.90
45409;DHT22;31162;51.076;3.784;2022-12-29T09:14:46;9.80;99.90
45409;DHT22;31162;51.076;3.784;2022-12-29T09:17:12;9.80;99.90
45409;DHT22;31162;51.076;3.784;2022-12-29T09:19:56;9.90;99.90
45409;DHT22;31162;51.076;3.784;2022-12-29T09:22:22;9.90;99.90
45409;DHT22;31162;51.076;3.784;2022-12-29T09:24:47;10.00;99.90
45409;DHT22;31162;51.076;3.784;2022-12-29T09:27:13;10.10;99.90
45409;DHT22;31162;51.076;3.784;2022-12-29T09:29:39;10.20;99.90
45409;DHT22;31162;51.076;3.784;2022-12-29T09:32:04;10.20;99.90
45409;DHT22;31162;51.076;3.784;2022-12-29T09:34:30;10.30;99.90
45409;DHT22;31162;51.076;3.784;2022-12-29T09:36:56;10.40;99.90
45409;DHT22;31162;51.076;3.784;2022-12-29T09:39:22;10.50;99.90
45409;DHT22;31162;51.076;3.784;2022-12-29T09:42:08;10.50;99.90
45409;DHT22;31162;51.076;3.784;2022-12-29T09:47:38;10.50;99.90
45409;DHT22;31162;51.076;3.784;2022-12-29T09:50:24;10.40;99.90
45409;DHT22;31162;51.076;3.784;2022-12-29T09:55:36;10.40;99.90
45409;DHT22;31162;51.076;3.784;2022-12-29T09:58:09;10.30;99.90
45409;DHT22;31162;51.076;3.784;2022-12-29T10:01:06;10.20;99.90
45409;DHT22;31162;51.076;3.784;2022-12-29T10:03:47;10.20;99.90
45409;DHT22;31162;51.076;3.784;2022-12-29T10:06:33;10.10;99.90
45409;DHT22;31162;51.076;3.784;2022-12-29T10:09:02;10.10;99.90
45409;DHT22;31162;51.076;3.784;2022-12-29T10:22:51;10.10;99.90
45409;DHT22;31162;51.076;3.784;2022-12-29T10:25:25;10.20;99.90
45409;DHT22;31162;51.076;3.784;2022-12-29T10:27:54;10.40;99.90
45409;DHT22;31162;51.076;3.784;2022-12-29T10:30:21;10.40;99.90
45409;DHT22;31162;51.076;3.784;2022-12-29T10:35:22;10.30;99.90
45409;DHT22;31162;51.076;3.784;2022-12-29T10:38:01;10.40;99.90
45409;DHT22;31162;51.076;3.784;2022-12-29T10:40:36;10.60;99.90
45409;DHT22;31162;51.076;3.784;2022-12-29T10:43:13;10.90;99.90
45409;DHT22;31162;51.076;3.784;2022-12-29T10:45:40;11.00;99.90
45409;DHT22;31162;51.076;3.784;2022-12-29T10:48:24;11.20;99.90
45409;DHT22;31162;51.076;3.784;2022-12-29T10:50:53;11.40;99.90
45409;DHT22;31162;51.076;3.784;2022-12-29T10:53:23;11.50;99.90
45409;DHT22;31162;51.076;3.784;2022-12-29T10:55:51;11.80;99.90
45409;DHT22;31162;51.076;3.784;2022-12-29T10:58:18;11.80;99.90
45409;DHT22;31162;51.076;3.784;2022-12-29T11:00:50;11.80;99.90
45409;DHT22;31162;51.076;3.784;2022-12-29T11:06:24;12.00;99.90
45409;DHT22;31162;51.076;3.784;2022-12-29T11:09:01;11.90;99.90
45409;DHT22;31162;51.076;3.784;2022-12-29T11:11:34;11.90;99.90
45409;DHT22;31162;51.076;3.784;2022-12-29T11:14:14;11.80;99.90
45409;DHT22;31162;51.076;3.784;2022-12-29T11:16:41;11.80;99.90
45409;DHT22;31162;51.076;3.784;2022-12-29T11:19:23;11.90;99.90
45409;DHT22;31162;51.076;3.784;2022-12-29T11:21:50;12.20;99.90
45409;DHT22;31162;51.076;3.784;2022-12-29T11:24:25;12.20;99.90
45409;DHT22;31162;51.076;3.784;2022-12-29T11:26:53;12.20;99.90
45409;DHT22;31162;51.076;3.784;2022-12-29T11:29:27;12.10;99.90
45409;DHT22;31162;51.076;3.784;2022-12-29T11:31:56;12.00;99.90
45409;DHT22;31162;51.076;3.784;2022-12-29T11:36:51;12.00;99.90
45409;DHT22;31162;51.076;3.784;2022-12-29T11:42:15;11.80;99.90
45409;DHT22;31162;51.076;3.784;2022-12-29T11:44:44;11.70;99.90
45409;DHT22;31162;51.076;3.784;2022-12-29T11:47:23;11.70;99.90
45409;DHT22;31162;51.076;3.784;2022-12-29T11:49:53;11.60;99.90
45409;DHT22;31162;51.076;3.784;2022-12-29T11:52:28;11.50;99.90
45409;DHT22;31162;51.076;3.784;2022-12-29T11:54:56;11.20;99.90
45409;DHT22;31162;51.076;3.784;2022-12-29T11:57:23;10.80;99.90
45409;DHT22;31162;51.076;3.784;2022-12-29T12:02:32;10.70;99.90
45409;DHT22;31162;51.076;3.784;2022-12-29T12:08:04;10.40;99.90
45409;DHT22;31162;51.076;3.784;2022-12-29T12:10:37;10.50;99.90
45409;DHT22;31162;51.076;3.784;2022-12-29T12:13:24;10.50;99.90
45409;DHT22;31162;51.076;3.784;2022-12-29T12:16:12;10.40;99.90
45409;DHT22;31162;51.076;3.784;2022-12-29T12:21:18;10.30;99.90
45409;DHT22;31162;51.076;3.784;2022-12-29T12:24:00;10.40;99.90
45409;DHT22;31162;51.076;3.784;2022-12-29T12:41:07;10.70;99.90
45409;DHT22;31162;51.076;3.784;2022-12-29T12:43:44;10.80;99.90
45409;DHT22;31162;51.076;3.784;2022-12-29T12:46:25;11.00;99.90
45409;DHT22;31162;51.076;3.784;2022-12-29T12:49:21;11.10;99.90
45409;DHT22;31162;51.076;3.784;2022-12-29T13:00:18;11.00;99.90
45409;DHT22;31162;51.076;3.784;2022-12-29T13:10:59;11.00;99.90
45409;DHT22;31162;51.076;3.784;2022-12-29T13:16:09;10.70;99.90
45409;DHT22;31162;51.076;3.784;2022-12-29T13:19:05;10.70;99.90
45409;DHT22;31162;51.076;3.784;2022-12-29T13:24:40;10.60;99.90
45409;DHT22;31162;51.076;3.784;2022-12-29T13:27:15;10.60;99.90
45409;DHT22;31162;51.076;3.784;2022-12-29T13:32:37;10.70;99.90
45409;DHT22;31162;51.076;3.784;2022-12-29T13:40:39;10.40;99.90
45409;DHT22;31162;51.076;3.784;2022-12-29T13:43:07;10.30;99.90
45409;DHT22;31162;51.076;3.784;2022-12-29T13:45:34;10.20;99.90
45409;DHT22;31162;51.076;3.784;2022-12-29T13:48:10;10.30;99.90
45409;DHT22;31162;51.076;3.784;2022-12-29T13:50:39;10.30;99.90
45409;DHT22;31162;51.076;3.784;2022-12-29T14:06:21;10.40;99.90
45409;DHT22;31162;51.076;3.784;2022-12-29T14:08:48;10.40;99.90
45409;DHT22;31162;51.076;3.784;2022-12-29T14:11:16;10.40;99.90
45409;DHT22;31162;51.076;3.784;2022-12-29T14:13:45;10.30;99.90
45409;DHT22;31162;51.076;3.784;2022-12-29T14:16:44;10.20;99.90
45409;DHT22;31162;51.076;3.784;2022-12-29T14:19:12;10.20;99.90
45409;DHT22;31162;51.076;3.784;2022-12-29T14:21:39;10.40;99.90
45409;DHT22;31162;51.076;3.784;2022-12-29T14:38:16;10.60;99.90
45409;DHT22;31162;51.076;3.784;2022-12-29T14:40:42;10.60;99.90
45409;DHT22;31162;51.076;3.784;2022-12-29T14:43:20;10.50;99.90
45409;DHT22;31162;51.076;3.784;2022-12-29T14:45:57;10.30;99.90
45409;DHT22;31162;51.076;3.784;2022-12-29T14:50:50;10.10;99.90
45409;DHT22;31162;51.076;3.784;2022-12-29T14:53:45;10.00;99.90
45409;DHT22;31162;51.076;3.784;2022-12-29T14:56:12;9.90;99.90
45409;DHT22;31162;51.076;3.784;2022-12-29T14:58:48;9.90;99.90
45409;DHT22;31162;51.076;3.784;2022-12-29T15:03:59;9.80;99.90
45409;DHT22;31162;51.076;3.784;2022-12-29T15:06:29;9.90;99.90
45409;DHT22;31162;51.076;3.784;2022-12-29T15:09:04;9.90;99.90
45409;DHT22;31162;51.076;3.784;2022-12-29T15:11:44;9.80;99.90
45409;DHT22;31162;51.076;3.784;2022-12-29T15:16:56;9.80;99.90
45409;DHT22;31162;51.076;3.784;2022-12-29T15:19:23;9.70;99.90
45409;DHT22;31162;51.076;3.784;2022-12-29T15:21:49;9.70;99.90
45409;DHT22;31162;51.076;3.784;2022-12-29T15:24:16;9.70;99.90
45409;DHT22;31162;51.076;3.784;2022-12-29T15:26:45;9.70;99.90
45409;DHT22;31162;51.076;3.784;2022-12-29T15:31:58;9.80;99.90
45409;DHT22;31162;51.076;3.784;2022-12-29T15:34:25;9.70;99.90
45409;DHT22;31162;51.076;3.784;2022-12-29T15:36:54;9.60;99.90
45409;DHT22;31162;51.076;3.784;2022-12-29T15:39:23;9.50;99.90
45409;DHT22;31162;51.076;3.784;2022-12-29T15:42:02;9.50;99.90
45409;DHT22;31162;51.076;3.784;2022-12-29T15:44:43;9.50;99.90
45409;DHT22;31162;51.076;3.784;2022-12-29T15:47:22;9.40;99.90
45409;DHT22;31162;51.076;3.784;2022-12-29T15:49:52;9.30;99.90
45409;DHT22;31162;51.076;3.784;2022-12-29T15:52:20;9.30;99.90
45409;DHT22;31162;51.076;3.784;2022-12-29T15:54:48;9.30;99.90
45409;DHT22;31162;51.076;3.784;2022-12-29T15:57:27;9.30;99.90
45409;DHT22;31162;51.076;3.784;2022-12-29T15:59:53;9.30;99.90
45409;DHT22;31162;51.076;3.784;2022-12-29T16:02:23;9.20;99.90
45409;DHT22;31162;51.076;3.784;2022-12-29T16:04:50;9.10;99.90
45409;DHT22;31162;51.076;3.784;2022-12-29T16:07:29;9.00;99.90
45409;DHT22;31162;51.076;3.784;2022-12-29T16:09:57;9.00;99.90
45409;DHT22;31162;51.076;3.784;2022-12-29T16:12:35;9.00;99.90
45409;DHT22;31162;51.076;3.784;2022-12-29T16:15:03;8.90;99.90
45409;DHT22;31162;51.076;3.784;2022-12-29T16:17:33;8.90;99.90
45409;DHT22;31162;51.076;3.784;2022-12-29T16:22:58;8.80;99.90
45409;DHT22;31162;51.076;3.784;2022-12-29T16:25:35;8.80;99.90
45409;DHT22;31162;51.076;3.784;2022-12-29T16:28:16;8.70;99.90
45409;DHT22;31162;51.076;3.784;2022-12-29T16:30:42;8.60;99.90
45409;DHT22;31162;51.076;3.784;2022-12-29T16:33:46;8.60;99.90
45409;DHT22;31162;51.076;3.784;2022-12-29T16:36:39;8.60;99.90
45409;DHT22;31162;51.076;3.784;2022-12-29T16:39:21;8.60;99.90
45409;DHT22;31162;51.076;3.784;2022-12-29T16:41:50;8.60;99.90
45409;DHT22;31162;51.076;3.784;2022-12-29T16:44:30;8.50;99.90
45409;DHT22;31162;51.076;3.784;2022-12-29T16:47:03;8.60;99.90
45409;DHT22;31162;51.076;3.784;2022-12-29T16:49:31;8.60;99.90
45409;DHT22;31162;51.076;3.784;2022-12-29T16:51:57;8.60;99.90
45409;DHT22;31162;51.076;3.784;2022-12-29T16:54:34;8.50;99.90
45409;DHT22;31162;51.076;3.784;2022-12-29T16:57:01;8.60;99.90
45409;DHT22;31162;51.076;3.784;2022-12-29T16:59:34;8.60;99.90
45409;DHT22;31162;51.076;3.784;2022-12-29T17:02:07;8.60;99.90
45409;DHT22;31162;51.076;3.784;2022-12-29T17:04:33;8.50;99.90
45409;DHT22;31162;51.076;3.784;2022-12-29T17:06:58;8.50;99.90
45409;DHT22;31162;51.076;3.784;2022-12-29T17:09:26;8.50;99.90
45409;DHT22;31162;51.076;3.784;2022-12-29T17:11:58;8.50;99.90
45409;DHT22;31162;51.076;3.784;2022-12-29T17:14:34;8.50;99.90
45409;DHT22;31162;51.076;3.784;2022-12-29T17:17:01;8.50;99.90
45409;DHT22;31162;51.076;3.784;2022-12-29T17:19:33;8.50;99.90
45409;DHT22;31162;51.076;3.784;2022-12-29T17:21:59;8.50;99.90
45409;DHT22;31162;51.076;3.784;2022-12-29T17:24:25;8.60;99.90
45409;DHT22;31162;51.076;3.784;2022-12-29T17:26:53;8.60;99.90
45409;DHT22;31162;51.076;3.784;2022-12-29T17:29:32;8.70;99.90
45409;DHT22;31162;51.076;3.784;2022-12-29T17:32:00;8.70;99.90
45409;DHT22;31162;51.076;3.784;2022-12-29T17:34:27;8.80;99.90
45409;DHT22;31162;51.076;3.784;2022-12-29T17:36:52;8.80;99.90
45409;DHT22;31162;51.076;3.784;2022-12-29T17:39:18;8.80;99.90
45409;DHT22;31162;51.076;3.784;2022-12-29T17:41:44;8.70;99.90
45409;DHT22;31162;51.076;3.784;2022-12-29T17:44:15;8.80;99.90
45409;DHT22;31162;51.076;3.784;2022-12-29T17:46:42;8.80;99.90
45409;DHT22;31162;51.076;3.784;2022-12-29T17:49:13;8.90;99.90
45409;DHT22;31162;51.076;3.784;2022-12-29T17:51:43;8.90;99.90
45409;DHT22;31162;51.076;3.784;2022-12-29T17:54:21;8.90;99.90
45409;DHT22;31162;51.076;3.784;2022-12-29T17:56:47;8.90;99.90
45409;DHT22;31162;51.076;3.784;2022-12-29T17:59:13;9.00;99.90
45409;DHT22;31162;51.076;3.784;2022-12-29T18:01:41;9.00;99.90
45409;DHT22;31162;51.076;3.784;2022-12-29T18:04:13;9.10;99.90
45409;DHT22;31162;51.076;3.784;2022-12-29T18:06:40;9.00;99.90
45409;DHT22;31162;51.076;3.784;2022-12-29T18:09:05;9.00;99.90
45409;DHT22;31162;51.076;3.784;2022-12-29T18:11:38;9.10;99.90
45409;DHT22;31162;51.076;3.784;2022-12-29T18:14:08;9.10;99.90
45409;DHT22;31162;51.076;3.784;2022-12-29T18:16:35;9.00;99.90
45409;DHT22;31162;51.076;3.784;2022-12-29T18:19:01;9.00;99.90
45409;DHT22;31162;51.076;3.784;2022-12-29T18:21:27;8.90;99.90
45409;DHT22;31162;51.076;3.784;2022-12-29T18:23:52;9.00;99.90
45409;DHT22;31162;51.076;3.784;2022-12-29T18:26:20;9.00;99.90
45409;DHT22;31162;51.076;3.784;2022-12-29T18:28:48;9.00;99.90
45409;DHT22;31162;51.076;3.784;2022-12-29T18:31:24;9.00;99.90